KMTH/MTH METAR and TAF weather

Enter ICAO airport designator
Station Type Date Time Source
KMTH METAR 2022/06/27 07:53 UTC NOAA

KMTH 270753Z AUTO 15007KT 10SM SCT022 SCT040 28/24 A2997 RMK AO2 SLP147 T02780239


Station Type Date Time Source
KMTH Decoded METAR 2022/06/27 07:53 UTC NOAA

MARATHON AIRPORT, FL, United States (KMTH) 24-44N 81-03W 2M
Jun 27, 2022 - 03:53 AM EDT / 2022.06.27 0753 UTC
Wind: from the SSE (150 degrees) at 8 MPH (7 KT):0
Visibility: 10 mile(s):0
Sky conditions: partly cloudy
Temperature: 82.0 F (27.8 C)
Dew Point: 75.0 F (23.9 C)
Relative Humidity: 79%
Pressure (altimeter): 29.97 in. Hg (1014 hPa)
ob: KMTH 270753Z AUTO 15007KT 10SM SCT022 SCT040 28/24 A2997 RMK AO2 SLP147 T02780239
cycle: 8

Station Type Date Time Source
KMTH TAF 2022/06/27 06:51 UTC NOAA

KMTH 270549Z 2706/2806 14005KT P6SM SCT030 SCT150

Example: see airport list